Time;durP1;ratioP1;P1;durP2;ratioP2;P2;SDS_P1;SDS_P2;PMS_P1;PMS_P2;Temp;Humidity;BMP_temperature;BMP_pressure;BME280_temperature;BME280_humidity;BME280_pressure;Samples;Min_cycle;Max_cycle;Signal;HPM_P1;HPM_P2
2023/07/07 00:01:07;;;;;;;7.70;4.80;;;;;;;;;;5131941;27;20772;-76
2023/07/07 00:03:35;;;;;;;7.60;4.80;;;;;;;;;;5132398;28;20228;-75
2023/07/07 00:06:02;;;;;;;6.90;4.80;;;;;;;;;;5132513;27;20232;-75
2023/07/07 00:08:29;;;;;;;7.27;4.83;;;;;;;;;;5132141;27;20613;-77
2023/07/07 00:11:00;;;;;;;7.97;4.80;;;;;;;;;;5132287;27;20295;-76
2023/07/07 00:13:27;;;;;;;8.70;4.70;;;;;;;;;;5131991;28;20575;-76
2023/07/07 00:15:59;;;;;;;7.80;4.60;;;;;;;;;;5132091;28;20197;-75
2023/07/07 00:18:27;;;;;;;8.90;5.10;;;;;;;;;;5132325;27;20193;-74
2023/07/07 00:20:54;;;;;;;8.43;5.27;;;;;;;;;;5136041;27;20235;-75
2023/07/07 00:23:21;;;;;;;7.80;4.77;;;;;;;;;;5136613;27;20221;-74
2023/07/07 00:26:00;;;;;;;7.43;5.40;;;;;;;;;;5136696;27;20673;-75
2023/07/07 00:28:27;;;;;;;9.83;5.57;;;;;;;;;;5136196;27;20197;-74
2023/07/07 00:30:54;;;;;;;6.97;5.47;;;;;;;;;;5136182;27;20199;-76
2023/07/07 00:33:21;;;;;;;8.57;5.20;;;;;;;;;;5136060;27;20279;-77
2023/07/07 00:35:49;;;;;;;6.17;4.67;;;;;;;;;;5136101;27;20684;-77
2023/07/07 00:38:16;;;;;;;7.07;5.30;;;;;;;;;;5136095;27;20280;-76
2023/07/07 00:40:44;;;;;;;7.07;4.90;;;;;;;;;;5136273;27;20235;-77
2023/07/07 00:43:13;;;;;;;9.83;5.53;;;;;;;;;;5135612;27;20701;-77
2023/07/07 00:45:40;;;;;;;7.03;5.10;;;;;;;;;;5136033;27;20225;-77
2023/07/07 00:48:10;;;;;;;7.37;4.70;;;;;;;;;;5135707;27;20291;-77
2023/07/07 00:50:40;;;;;;;6.07;4.70;;;;;;;;;;5135511;27;20264;-76
2023/07/07 00:53:07;;;;;;;8.60;5.00;;;;;;;;;;5135876;27;20284;-77
2023/07/07 00:55:36;;;;;;;10.37;5.40;;;;;;;;;;5135678;27;20366;-76
2023/07/07 00:58:06;;;;;;;7.53;5.30;;;;;;;;;;5135381;27;20256;-77
2023/07/07 01:00:34;;;;;;;9.70;5.20;;;;;;;;;;5135174;27;20236;-76
2023/07/07 01:03:04;;;;;;;7.63;5.10;;;;;;;;;;5135484;27;20225;-76
2023/07/07 01:05:33;;;;;;;7.73;5.20;;;;;;;;;;5136048;27;20241;-77
2023/07/07 01:08:01;;;;;;;8.00;4.57;;;;;;;;;;5135370;27;20727;-77
2023/07/07 01:10:28;;;;;;;10.20;4.63;;;;;;;;;;5135776;27;20283;-77
2023/07/07 01:12:56;;;;;;;6.00;4.53;;;;;;;;;;5135676;27;20640;-76
2023/07/07 01:15:24;;;;;;;5.70;4.60;;;;;;;;;;5135295;27;20689;-77
2023/07/07 01:17:59;;;;;;;7.40;5.23;;;;;;;;;;5135515;27;20213;-78
2023/07/07 01:20:31;;;;;;;5.93;5.00;;;;;;;;;;5135425;27;20315;-76
2023/07/07 01:23:13;;;;;;;6.63;4.83;;;;;;;;;;5135254;27;20221;-76
2023/07/07 01:25:48;;;;;;;7.40;5.10;;;;;;;;;;5134938;27;20321;-77
2023/07/07 01:28:23;;;;;;;8.77;4.57;;;;;;;;;;5135267;27;20196;-77
2023/07/07 01:30:52;;;;;;;9.97;4.93;;;;;;;;;;5134221;27;20220;-76
2023/07/07 01:33:21;;;;;;;5.53;4.80;;;;;;;;;;5134998;27;20733;-76
2023/07/07 01:35:48;;;;;;;8.70;5.10;;;;;;;;;;5134894;27;20280;-77
2023/07/07 01:38:30;;;;;;;9.03;4.83;;;;;;;;;;5134548;27;20288;-77
2023/07/07 01:40:59;;;;;;;8.23;4.90;;;;;;;;;;5134692;27;20228;-76
2023/07/07 01:43:31;;;;;;;7.30;4.90;;;;;;;;;;5134951;27;20649;-76
2023/07/07 01:46:02;;;;;;;8.33;5.30;;;;;;;;;;5135116;27;20793;-77
2023/07/07 01:48:31;;;;;;;8.13;5.33;;;;;;;;;;5134882;27;20283;-76
2023/07/07 01:50:59;;;;;;;8.00;5.70;;;;;;;;;;5134171;27;20277;-77
2023/07/07 01:53:28;;;;;;;6.73;5.17;;;;;;;;;;5135421;27;20300;-77
2023/07/07 01:55:57;;;;;;;6.97;5.43;;;;;;;;;;5134843;27;20231;-77
2023/07/07 01:58:24;;;;;;;7.80;5.30;;;;;;;;;;5133036;27;20213;-76
2023/07/07 02:00:53;;;;;;;9.03;5.37;;;;;;;;;;5122803;27;20683;-76
2023/07/07 02:03:21;;;;;;;6.47;5.17;;;;;;;;;;5134192;27;20250;-77
2023/07/07 02:05:49;;;;;;;7.67;4.80;;;;;;;;;;5134605;27;20224;-76
2023/07/07 02:08:16;;;;;;;8.50;5.57;;;;;;;;;;5134168;27;20227;-76
2023/07/07 02:10:43;;;;;;;7.20;5.30;;;;;;;;;;5133686;27;20760;-76
2023/07/07 02:13:10;;;;;;;5.73;4.80;;;;;;;;;;5133793;27;20221;-76
2023/07/07 02:15:38;;;;;;;9.93;5.50;;;;;;;;;;5133942;27;20717;-77
2023/07/07 02:18:05;;;;;;;6.50;5.00;;;;;;;;;;5133976;27;20233;-77
2023/07/07 02:20:34;;;;;;;8.00;5.20;;;;;;;;;;5134023;27;20315;-77
2023/07/07 02:23:01;;;;;;;6.33;5.40;;;;;;;;;;5133895;27;20232;-75
2023/07/07 02:25:28;;;;;;;7.33;5.10;;;;;;;;;;5133492;27;20666;-76
2023/07/07 02:27:55;;;;;;;8.10;5.33;;;;;;;;;;5133575;27;20633;-77
2023/07/07 02:30:23;;;;;;;8.40;5.73;;;;;;;;;;5133670;27;20679;-77
2023/07/07 02:32:50;;;;;;;7.40;5.43;;;;;;;;;;5134064;27;20227;-76
2023/07/07 02:35:17;;;;;;;8.00;5.47;;;;;;;;;;5133844;27;20200;-76
2023/07/07 02:37:46;;;;;;;7.27;5.30;;;;;;;;;;5134054;27;20228;-76
2023/07/07 02:40:13;;;;;;;8.47;5.43;;;;;;;;;;5133466;27;20197;-76
2023/07/07 02:42:41;;;;;;;8.33;5.43;;;;;;;;;;5133043;27;20291;-76
2023/07/07 02:45:09;;;;;;;6.40;5.20;;;;;;;;;;5133065;27;20193;-74
2023/07/07 02:47:36;;;;;;;9.93;5.50;;;;;;;;;;5124867;27;20655;-75
2023/07/07 02:50:03;;;;;;;8.17;5.50;;;;;;;;;;5118093;27;20320;-76
2023/07/07 02:52:31;;;;;;;9.13;5.73;;;;;;;;;;5113162;28;20285;-76
2023/07/07 02:55:00;;;;;;;7.60;5.43;;;;;;;;;;5112731;28;20189;-77
2023/07/07 02:57:27;;;;;;;9.83;5.83;;;;;;;;;;5112197;28;20285;-77
2023/07/07 02:59:54;;;;;;;9.97;5.73;;;;;;;;;;5112851;28;20280;-76
2023/07/07 03:02:21;;;;;;;6.53;5.10;;;;;;;;;;5112916;28;20675;-75
2023/07/07 03:04:48;;;;;;;7.43;5.63;;;;;;;;;;5112225;28;20300;-77
2023/07/07 03:07:16;;;;;;;6.97;5.47;;;;;;;;;;5112450;28;20261;-77
2023/07/07 03:09:43;;;;;;;9.47;5.40;;;;;;;;;;5112887;28;20309;-76
2023/07/07 03:12:11;;;;;;;6.53;4.73;;;;;;;;;;5112694;28;20300;-76
2023/07/07 03:14:40;;;;;;;7.63;5.17;;;;;;;;;;5112239;28;20733;-77
2023/07/07 03:17:09;;;;;;;8.37;5.30;;;;;;;;;;5132630;27;20284;-76
2023/07/07 03:19:36;;;;;;;8.43;5.53;;;;;;;;;;5132901;27;20193;-76
2023/07/07 03:22:03;;;;;;;5.73;5.00;;;;;;;;;;5132881;27;20235;-75
2023/07/07 03:24:30;;;;;;;6.70;5.13;;;;;;;;;;5132506;27;20631;-77
2023/07/07 03:26:57;;;;;;;9.73;5.30;;;;;;;;;;5132883;27;20196;-77
2023/07/07 03:29:26;;;;;;;6.50;5.53;;;;;;;;;;5132620;27;20378;-76
2023/07/07 03:31:53;;;;;;;8.37;5.50;;;;;;;;;;5125964;27;20674;-76
2023/07/07 03:34:21;;;;;;;8.03;5.70;;;;;;;;;;5127188;27;20205;-77
2023/07/07 03:36:48;;;;;;;6.20;5.60;;;;;;;;;;5132625;27;20245;-76
2023/07/07 03:39:15;;;;;;;6.27;5.40;;;;;;;;;;5132436;27;20221;-76
2023/07/07 03:41:42;;;;;;;7.30;5.87;;;;;;;;;;5132567;27;20232;-76
2023/07/07 03:44:10;;;;;;;10.93;6.20;;;;;;;;;;5132539;27;20312;-75
2023/07/07 03:46:38;;;;;;;9.87;6.10;;;;;;;;;;5132613;27;20253;-74
2023/07/07 03:49:05;;;;;;;9.07;6.33;;;;;;;;;;5132728;27;20304;-75
2023/07/07 03:51:34;;;;;;;7.03;5.13;;;;;;;;;;5132165;27;20234;-75
2023/07/07 03:54:02;;;;;;;8.87;5.70;;;;;;;;;;5132407;27;20196;-75
2023/07/07 03:56:29;;;;;;;6.77;5.73;;;;;;;;;;5132685;27;20204;-76
2023/07/07 03:58:57;;;;;;;7.97;5.83;;;;;;;;;;5132542;27;20294;-75
2023/07/07 04:01:24;;;;;;;7.63;5.67;;;;;;;;;;5133236;27;20320;-76
2023/07/07 04:03:52;;;;;;;7.90;5.60;;;;;;;;;;5133059;28;20231;-75
2023/07/07 04:06:20;;;;;;;7.77;6.17;;;;;;;;;;5132078;28;20272;-76
2023/07/07 04:08:47;;;;;;;6.63;5.80;;;;;;;;;;5132505;28;20286;-76
2023/07/07 04:11:16;;;;;;;7.47;6.00;;;;;;;;;;5133224;28;20202;-77
2023/07/07 04:13:43;;;;;;;7.77;5.70;;;;;;;;;;5132140;28;20289;-76
2023/07/07 04:16:12;;;;;;;7.47;6.10;;;;;;;;;;5131989;28;20193;-75
2023/07/07 04:18:39;;;;;;;9.73;6.40;;;;;;;;;;5124555;27;20207;-76
2023/07/07 04:21:09;;;;;;;9.93;5.93;;;;;;;;;;5112944;28;20230;-74
2023/07/07 04:23:37;;;;;;;8.17;5.80;;;;;;;;;;5111663;28;20204;-75
2023/07/07 04:26:04;;;;;;;8.17;6.47;;;;;;;;;;5111742;28;20200;-75
2023/07/07 04:28:32;;;;;;;7.63;5.83;;;;;;;;;;5111943;28;20190;-75
2023/07/07 04:31:00;;;;;;;9.23;6.30;;;;;;;;;;5111525;28;20295;-75
2023/07/07 04:33:28;;;;;;;10.67;6.53;;;;;;;;;;5111551;28;20225;-75
2023/07/07 04:35:57;;;;;;;8.53;6.53;;;;;;;;;;5111562;28;20197;-75
2023/07/07 04:38:30;;;;;;;9.93;6.10;;;;;;;;;;5112271;28;20289;-76
2023/07/07 04:41:05;;;;;;;8.40;6.03;;;;;;;;;;5111431;28;20585;-74
2023/07/07 04:43:32;;;;;;;9.27;6.73;;;;;;;;;;5111134;28;20599;-76
2023/07/07 04:45:59;;;;;;;9.97;6.63;;;;;;;;;;5111579;28;20205;-74
2023/07/07 04:48:26;;;;;;;8.47;6.50;;;;;;;;;;5118332;27;20444;-75
2023/07/07 04:50:57;;;;;;;8.00;6.40;;;;;;;;;;5127128;28;20308;-75
2023/07/07 04:53:27;;;;;;;9.10;6.33;;;;;;;;;;5131662;28;20236;-77
2023/07/07 04:55:54;;;;;;;8.73;7.00;;;;;;;;;;5131983;28;20287;-77
2023/07/07 04:58:21;;;;;;;9.13;6.53;;;;;;;;;;5131787;28;20201;-76
2023/07/07 05:00:49;;;;;;;10.00;6.77;;;;;;;;;;5131588;28;20296;-76
2023/07/07 05:03:16;;;;;;;8.20;6.73;;;;;;;;;;5131371;27;20712;-77
2023/07/07 05:05:43;;;;;;;11.03;6.57;;;;;;;;;;5132803;27;20225;-76
2023/07/07 05:08:11;;;;;;;7.77;6.00;;;;;;;;;;5135287;27;20314;-76
2023/07/07 05:10:39;;;;;;;7.60;5.83;;;;;;;;;;5135266;27;20292;-76
2023/07/07 05:13:06;;;;;;;7.83;5.80;;;;;;;;;;5136095;27;20261;-76
2023/07/07 05:15:33;;;;;;;8.60;6.23;;;;;;;;;;5135554;27;20241;-76
2023/07/07 05:18:01;;;;;;;11.00;6.50;;;;;;;;;;5134898;27;20221;-77
2023/07/07 05:20:28;;;;;;;7.90;6.27;;;;;;;;;;5135339;27;20288;-77
2023/07/07 05:22:55;;;;;;;7.87;5.93;;;;;;;;;;5134906;27;20308;-76
2023/07/07 05:25:22;;;;;;;10.30;6.77;;;;;;;;;;5135128;27;20243;-76
2023/07/07 05:27:51;;;;;;;7.10;6.10;;;;;;;;;;5131833;27;20293;-77
2023/07/07 05:30:18;;;;;;;9.30;6.40;;;;;;;;;;5135196;27;20283;-75
2023/07/07 05:32:45;;;;;;;11.97;7.00;;;;;;;;;;5135062;27;20657;-76
2023/07/07 05:35:12;;;;;;;8.00;6.50;;;;;;;;;;5134802;27;20638;-77
2023/07/07 05:37:40;;;;;;;8.53;6.77;;;;;;;;;;5134664;27;20286;-78
2023/07/07 05:40:08;;;;;;;7.77;6.10;;;;;;;;;;5135044;27;20664;-77
2023/07/07 05:42:35;;;;;;;10.60;6.60;;;;;;;;;;5134590;27;20988;-76
2023/07/07 05:45:03;;;;;;;7.77;6.13;;;;;;;;;;5134577;27;20760;-77
2023/07/07 05:47:31;;;;;;;7.33;5.80;;;;;;;;;;5134639;27;20221;-76
2023/07/07 05:49:58;;;;;;;7.33;5.67;;;;;;;;;;5134487;27;20256;-76
2023/07/07 05:52:25;;;;;;;7.23;5.43;;;;;;;;;;5120545;27;20315;-77
2023/07/07 05:54:52;;;;;;;8.13;5.37;;;;;;;;;;5119040;27;20264;-77
2023/07/07 05:57:19;;;;;;;6.00;5.00;;;;;;;;;;5119524;27;20641;-76
2023/07/07 05:59:47;;;;;;;7.00;5.13;;;;;;;;;;5129370;27;20209;-76
2023/07/07 06:02:15;;;;;;;7.17;5.43;;;;;;;;;;5133656;27;20240;-76
2023/07/07 06:04:42;;;;;;;6.53;5.13;;;;;;;;;;5134238;27;20304;-77
2023/07/07 06:07:10;;;;;;;5.82;4.72;;;;;;;;;;5133969;27;20288;-77
2023/07/07 06:09:37;;;;;;;6.32;4.78;;;;;;;;;;5133358;27;20868;-76
2023/07/07 06:12:04;;;;;;;8.77;5.28;;;;;;;;;;5133255;27;20284;-76
2023/07/07 06:14:31;;;;;;;6.53;5.00;;;;;;;;;;5133983;27;20278;-76
2023/07/07 06:16:59;;;;;;;7.97;5.30;;;;;;;;;;5133196;27;20225;-76
2023/07/07 06:19:27;;;;;;;6.03;5.18;;;;;;;;;;5133068;27;20197;-76
2023/07/07 06:21:54;;;;;;;5.97;5.05;;;;;;;;;;5133223;27;20260;-76
2023/07/07 06:24:21;;;;;;;6.25;5.05;;;;;;;;;;5133683;27;20623;-76
2023/07/07 06:26:49;;;;;;;5.50;4.82;;;;;;;;;;5133475;27;20216;-75
2023/07/07 06:29:16;;;;;;;6.68;4.88;;;;;;;;;;5132321;27;20248;-77
2023/07/07 06:31:43;;;;;;;6.45;4.93;;;;;;;;;;5112756;27;20237;-77
2023/07/07 06:34:10;;;;;;;5.50;4.85;;;;;;;;;;5112920;28;20680;-77
2023/07/07 06:36:39;;;;;;;7.93;4.88;;;;;;;;;;5120995;27;20605;-77
2023/07/07 06:39:07;;;;;;;5.90;4.90;;;;;;;;;;5112827;28;20209;-76
2023/07/07 06:41:34;;;;;;;6.40;4.70;;;;;;;;;;5114187;27;20208;-76
2023/07/07 06:44:01;;;;;;;4.50;4.07;;;;;;;;;;5132632;27;20243;-77
2023/07/07 06:46:28;;;;;;;6.15;4.18;;;;;;;;;;5133034;27;20284;-76
2023/07/07 06:48:56;;;;;;;5.07;4.13;;;;;;;;;;5133195;27;20197;-77
2023/07/07 06:51:24;;;;;;;4.97;4.07;;;;;;;;;;5132725;27;20987;-77
2023/07/07 06:53:52;;;;;;;6.50;3.90;;;;;;;;;;5132858;27;20721;-77
2023/07/07 06:56:19;;;;;;;5.03;4.20;;;;;;;;;;5132896;27;20293;-77
2023/07/07 06:58:46;;;;;;;4.47;3.90;;;;;;;;;;5131098;27;20284;-76
2023/07/07 07:01:14;;;;;;;5.13;3.65;;;;;;;;;;5128567;27;20201;-76
2023/07/07 07:03:42;;;;;;;3.85;3.47;;;;;;;;;;5132236;27;20324;-76
2023/07/07 07:06:10;;;;;;;4.28;3.45;;;;;;;;;;5131434;27;20196;-77
2023/07/07 07:08:37;;;;;;;4.35;3.85;;;;;;;;;;5132537;27;20197;-77
2023/07/07 07:11:06;;;;;;;5.85;3.47;;;;;;;;;;5131917;27;20284;-76
2023/07/07 07:13:33;;;;;;;3.63;3.10;;;;;;;;;;5132757;27;20200;-77
2023/07/07 07:16:00;;;;;;;3.83;3.00;;;;;;;;;;5132390;27;20297;-77
2023/07/07 07:18:27;;;;;;;5.65;3.55;;;;;;;;;;5132973;27;20279;-76
2023/07/07 07:20:55;;;;;;;4.38;3.20;;;;;;;;;;5132087;27;20220;-76
2023/07/07 07:23:23;;;;;;;6.90;3.42;;;;;;;;;;5132192;27;20315;-76
2023/07/07 07:25:50;;;;;;;4.80;3.20;;;;;;;;;;5132653;27;20289;-76
2023/07/07 07:28:18;;;;;;;5.18;3.17;;;;;;;;;;5131359;27;20229;-75
2023/07/07 07:30:46;;;;;;;5.57;3.30;;;;;;;;;;5131814;27;20232;-75
2023/07/07 07:33:14;;;;;;;4.22;3.05;;;;;;;;;;5132095;27;20236;-76
2023/07/07 07:35:41;;;;;;;4.30;3.03;;;;;;;;;;5132627;27;20197;-77
2023/07/07 07:38:09;;;;;;;6.57;3.30;;;;;;;;;;5131920;27;20193;-77
2023/07/07 07:40:36;;;;;;;5.68;3.05;;;;;;;;;;5132003;27;20204;-76
2023/07/07 07:43:03;;;;;;;6.95;3.05;;;;;;;;;;5132086;27;20670;-77
2023/07/07 07:45:32;;;;;;;5.93;3.05;;;;;;;;;;5132356;27;20224;-77
2023/07/07 07:47:59;;;;;;;7.72;3.25;;;;;;;;;;5131933;27;20287;-77
2023/07/07 07:50:28;;;;;;;6.97;3.05;;;;;;;;;;5131399;27;20220;-77
2023/07/07 07:52:56;;;;;;;8.20;3.20;;;;;;;;;;5130999;27;20193;-76
2023/07/07 07:55:23;;;;;;;6.90;3.40;;;;;;;;;;5131774;27;20232;-77
2023/07/07 07:57:50;;;;;;;7.25;2.92;;;;;;;;;;5114707;27;20205;-77
2023/07/07 08:00:18;;;;;;;4.28;2.92;;;;;;;;;;5131690;27;20280;-76
2023/07/07 08:02:48;;;;;;;4.95;3.08;;;;;;;;;;5130798;27;20263;-77
2023/07/07 08:05:15;;;;;;;5.43;3.13;;;;;;;;;;5132148;27;20207;-77
2023/07/07 08:07:42;;;;;;;5.88;3.45;;;;;;;;;;5131849;27;20624;-77
2023/07/07 08:10:10;;;;;;;7.40;3.28;;;;;;;;;;5123882;27;20228;-76
2023/07/07 08:12:38;;;;;;;4.22;3.25;;;;;;;;;;5118752;27;20693;-77
2023/07/07 08:15:05;;;;;;;3.85;3.45;;;;;;;;;;5131951;27;20201;-78
2023/07/07 08:17:33;;;;;;;3.83;2.90;;;;;;;;;;5131542;28;20297;-78
2023/07/07 08:20:01;;;;;;;3.83;3.10;;;;;;;;;;5131183;28;20197;-78
2023/07/07 08:22:28;;;;;;;5.45;3.53;;;;;;;;;;5131832;28;20327;-78
2023/07/07 08:24:57;;;;;;;4.35;3.10;;;;;;;;;;5131762;28;20665;-79
2023/07/07 08:27:25;;;;;;;4.75;3.40;;;;;;;;;;5129486;27;20229;-79
2023/07/07 08:29:52;;;;;;;4.68;3.60;;;;;;;;;;5132948;27;20204;-78
2023/07/07 08:32:21;;;;;;;6.10;3.70;;;;;;;;;;5135373;27;20220;-77
2023/07/07 08:34:48;;;;;;;5.00;3.55;;;;;;;;;;5151770;27;20188;-78
2023/07/07 08:37:17;;;;;;;4.80;3.80;;;;;;;;;;5132753;27;20664;-79
2023/07/07 08:39:44;;;;;;;9.27;3.90;;;;;;;;;;5132068;27;20288;-78
2023/07/07 08:42:23;;;;;;;6.03;4.10;;;;;;;;;;5133358;27;20280;-78
2023/07/07 08:44:51;;;;;;;4.28;3.60;;;;;;;;;;5137595;27;20224;-78
2023/07/07 08:47:25;;;;;;;6.18;3.83;;;;;;;;;;5134405;27;20288;-78
2023/07/07 08:49:55;;;;;;;5.28;3.80;;;;;;;;;;5134625;27;20214;-76
2023/07/07 08:52:28;;;;;;;6.95;3.85;;;;;;;;;;5132010;27;20200;-78
2023/07/07 08:54:59;;;;;;;5.35;3.95;;;;;;;;;;5132160;27;20603;-78
2023/07/07 08:57:29;;;;;;;6.47;4.30;;;;;;;;;;5133937;27;20189;-78
2023/07/07 09:00:01;;;;;;;7.07;4.72;;;;;;;;;;5134388;27;20194;-78
2023/07/07 09:02:43;;;;;;;5.60;3.85;;;;;;;;;;5134186;27;20196;-79
2023/07/07 09:05:20;;;;;;;4.82;4.30;;;;;;;;;;5131843;27;20741;-78
2023/07/07 09:08:00;;;;;;;5.05;4.20;;;;;;;;;;5135348;27;20189;-78
2023/07/07 09:10:41;;;;;;;5.50;4.40;;;;;;;;;;5134058;27;20613;-78
2023/07/07 09:13:14;;;;;;;4.55;3.97;;;;;;;;;;5131999;27;20700;-78
2023/07/07 09:15:44;;;;;;;6.57;4.13;;;;;;;;;;5134739;27;20284;-78
2023/07/07 09:18:20;;;;;;;5.25;4.45;;;;;;;;;;5132363;27;20196;-78
2023/07/07 09:20:53;;;;;;;4.57;3.88;;;;;;;;;;5131613;27;20636;-79
2023/07/07 09:23:24;;;;;;;7.13;4.55;;;;;;;;;;5129566;27;20317;-78
2023/07/07 09:25:54;;;;;;;5.78;3.60;;;;;;;;;;5133606;27;20224;-78
2023/07/07 09:28:21;;;;;;;4.95;3.70;;;;;;;;;;5133825;27;20232;-78
2023/07/07 09:30:50;;;;;;;6.57;3.83;;;;;;;;;;5133837;27;20272;-78
2023/07/07 09:33:19;;;;;;;4.82;3.55;;;;;;;;;;5134007;27;20284;-78
2023/07/07 09:35:50;;;;;;;5.72;3.72;;;;;;;;;;5133919;27;20193;-78
2023/07/07 09:38:22;;;;;;;6.55;3.40;;;;;;;;;;5133560;27;20665;-78
2023/07/07 09:40:56;;;;;;;5.50;3.60;;;;;;;;;;5131160;27;20284;-79
2023/07/07 09:43:29;;;;;;;5.32;4.00;;;;;;;;;;5133853;27;20213;-79
2023/07/07 09:46:03;;;;;;;6.50;4.20;;;;;;;;;;5134050;27;20642;-79
2023/07/07 09:48:35;;;;;;;5.05;3.60;;;;;;;;;;5131615;27;20661;-78
2023/07/07 09:51:07;;;;;;;5.40;3.35;;;;;;;;;;5133331;27;20893;-78
2023/07/07 09:53:35;;;;;;;4.25;3.55;;;;;;;;;;5132568;27;20685;-79
2023/07/07 09:56:04;;;;;;;3.85;3.15;;;;;;;;;;5132488;27;20211;-78
2023/07/07 09:58:33;;;;;;;4.53;3.40;;;;;;;;;;5133610;27;20292;-78
2023/07/07 10:01:02;;;;;;;5.70;3.20;;;;;;;;;;5133555;27;20284;-78
2023/07/07 10:03:33;;;;;;;6.55;3.38;;;;;;;;;;5133913;27;20260;-79
2023/07/07 10:06:02;;;;;;;4.55;3.80;;;;;;;;;;5133351;27;20574;-78
2023/07/07 10:08:30;;;;;;;4.03;3.55;;;;;;;;;;5133435;27;20276;-78
2023/07/07 10:10:59;;;;;;;3.60;3.20;;;;;;;;;;5133388;27;20197;-78
2023/07/07 10:13:28;;;;;;;6.03;4.05;;;;;;;;;;5133248;27;20287;-79
2023/07/07 10:15:57;;;;;;;4.60;3.47;;;;;;;;;;5133664;27;20276;-78
2023/07/07 10:18:25;;;;;;;4.88;3.78;;;;;;;;;;5131509;27;20714;-79
2023/07/07 10:20:53;;;;;;;5.93;3.58;;;;;;;;;;5113378;28;20221;-78
2023/07/07 10:23:20;;;;;;;5.53;3.30;;;;;;;;;;5123705;27;20303;-78
2023/07/07 10:25:48;;;;;;;5.25;4.13;;;;;;;;;;5134349;27;20279;-78
2023/07/07 10:28:16;;;;;;;6.43;3.50;;;;;;;;;;5133495;27;20193;-77
2023/07/07 10:30:45;;;;;;;5.15;3.33;;;;;;;;;;5133603;27;20266;-79
2023/07/07 10:33:13;;;;;;;5.20;3.45;;;;;;;;;;5133201;27;20216;-79
2023/07/07 10:35:41;;;;;;;5.55;3.75;;;;;;;;;;5134042;27;20284;-79
2023/07/07 10:38:09;;;;;;;5.38;3.60;;;;;;;;;;5133387;27;20189;-79
2023/07/07 10:40:37;;;;;;;5.05;3.72;;;;;;;;;;5133716;27;20197;-78
2023/07/07 10:43:05;;;;;;;4.85;3.60;;;;;;;;;;5133642;27;20252;-79
2023/07/07 10:45:32;;;;;;;14.02;3.95;;;;;;;;;;5133628;27;20998;-79
2023/07/07 10:48:01;;;;;;;8.98;3.80;;;;;;;;;;5133210;27;20636;-79
2023/07/07 10:50:30;;;;;;;6.00;3.90;;;;;;;;;;5133286;27;20233;-78
2023/07/07 10:53:13;;;;;;;4.25;3.60;;;;;;;;;;5133581;27;20235;-78
2023/07/07 10:55:48;;;;;;;5.63;3.80;;;;;;;;;;5133344;27;20669;-78
2023/07/07 10:58:22;;;;;;;4.07;3.60;;;;;;;;;;5133284;27;20201;-78
2023/07/07 11:00:57;;;;;;;5.40;3.85;;;;;;;;;;5133353;27;20197;-79
2023/07/07 11:03:42;;;;;;;5.50;3.72;;;;;;;;;;5132405;27;20316;-79
2023/07/07 11:06:17;;;;;;;6.18;3.60;;;;;;;;;;5133167;27;20291;-79
2023/07/07 11:09:00;;;;;;;9.02;3.88;;;;;;;;;;5133175;27;20223;-79
2023/07/07 11:11:32;;;;;;;6.32;4.00;;;;;;;;;;5132742;27;20618;-79
2023/07/07 11:14:16;;;;;;;6.50;3.83;;;;;;;;;;5133297;27;20270;-79
2023/07/07 11:16:49;;;;;;;4.32;3.78;;;;;;;;;;5132997;27;20228;-78
2023/07/07 11:19:29;;;;;;;4.22;3.72;;;;;;;;;;5132800;27;20283;-79
2023/07/07 11:22:01;;;;;;;6.97;4.10;;;;;;;;;;5132213;27;20296;-79
2023/07/07 11:24:31;;;;;;;4.55;3.85;;;;;;;;;;5133034;27;20216;-80
2023/07/07 11:27:07;;;;;;;7.32;4.00;;;;;;;;;;5132493;27;20628;-79
2023/07/07 11:29:40;;;;;;;5.55;3.97;;;;;;;;;;5132856;27;20205;-79
2023/07/07 11:32:11;;;;;;;4.90;3.75;;;;;;;;;;5132955;27;20310;-79
2023/07/07 11:34:47;;;;;;;4.93;3.92;;;;;;;;;;5132300;27;20212;-79
2023/07/07 11:37:21;;;;;;;8.43;4.68;;;;;;;;;;5132316;27;20681;-79
2023/07/07 11:40:04;;;;;;;5.25;3.85;;;;;;;;;;5132765;27;20235;-78
2023/07/07 11:42:38;;;;;;;7.82;3.90;;;;;;;;;;5132723;27;20196;-77
2023/07/07 11:45:11;;;;;;;5.97;4.10;;;;;;;;;;5132734;27;20308;-77
2023/07/07 11:47:55;;;;;;;7.22;3.95;;;;;;;;;;5132373;27;20280;-78
2023/07/07 11:50:31;;;;;;;5.30;4.20;;;;;;;;;;5132036;27;20229;-77
2023/07/07 11:53:06;;;;;;;5.28;4.03;;;;;;;;;;5132725;27;20280;-79
2023/07/07 11:55:46;;;;;;;4.30;3.90;;;;;;;;;;5131805;27;20295;-77
2023/07/07 11:58:19;;;;;;;4.32;3.92;;;;;;;;;;5132307;27;20280;-79
2023/07/07 12:00:50;;;;;;;7.05;4.20;;;;;;;;;;5132294;27;20203;-77
2023/07/07 12:03:29;;;;;;;6.80;4.22;;;;;;;;;;5131722;28;20292;-79
2023/07/07 12:06:01;;;;;;;5.80;4.03;;;;;;;;;;5131975;28;20228;-79
2023/07/07 12:08:31;;;;;;;7.85;4.22;;;;;;;;;;5132158;27;20193;-77
2023/07/07 12:10:59;;;;;;;4.88;4.05;;;;;;;;;;5132404;27;20276;-78
2023/07/07 12:13:30;;;;;;;8.13;4.00;;;;;;;;;;5132406;27;20193;-79
2023/07/07 12:16:01;;;;;;;5.65;4.18;;;;;;;;;;5134740;27;20212;-79
2023/07/07 12:18:32;;;;;;;6.18;4.32;;;;;;;;;;5136177;27;20236;-79
2023/07/07 12:21:07;;;;;;;5.25;4.20;;;;;;;;;;5136399;27;20193;-79
2023/07/07 12:23:37;;;;;;;8.50;4.18;;;;;;;;;;5135923;27;20914;-79
2023/07/07 12:26:09;;;;;;;4.80;4.07;;;;;;;;;;5136130;27;20716;-79
2023/07/07 12:28:36;;;;;;;4.70;3.88;;;;;;;;;;5135883;27;20608;-79
2023/07/07 12:31:04;;;;;;;5.93;4.43;;;;;;;;;;5135988;27;20730;-79
2023/07/07 12:33:40;;;;;;;5.63;4.20;;;;;;;;;;5135829;27;20193;-80
2023/07/07 12:36:09;;;;;;;5.72;4.30;;;;;;;;;;5135689;27;20196;-80
2023/07/07 12:38:36;;;;;;;5.32;4.22;;;;;;;;;;5135995;27;20283;-79
2023/07/07 12:41:05;;;;;;;5.82;4.25;;;;;;;;;;5135785;27;20193;-79
2023/07/07 12:43:35;;;;;;;5.95;4.35;;;;;;;;;;5135636;27;20232;-79
2023/07/07 12:46:03;;;;;;;7.90;4.45;;;;;;;;;;5135893;27;20220;-79
2023/07/07 12:48:31;;;;;;;5.35;4.50;;;;;;;;;;5135505;27;20292;-79
2023/07/07 12:50:59;;;;;;;6.90;4.50;;;;;;;;;;5134988;27;20297;-80
2023/07/07 12:53:29;;;;;;;4.35;3.92;;;;;;;;;;5135675;27;20200;-79
2023/07/07 12:56:01;;;;;;;6.65;4.30;;;;;;;;;;5135555;27;20646;-79
2023/07/07 12:58:31;;;;;;;7.43;4.40;;;;;;;;;;5135467;27;20197;-79
2023/07/07 13:01:05;;;;;;;6.63;4.40;;;;;;;;;;5135438;27;20292;-78
2023/07/07 13:03:34;;;;;;;5.38;3.67;;;;;;;;;;5134819;27;20193;-79
2023/07/07 13:06:01;;;;;;;5.60;4.28;;;;;;;;;;5135595;27;20193;-79
2023/07/07 13:08:36;;;;;;;5.40;4.22;;;;;;;;;;5135407;27;20235;-79
2023/07/07 13:11:05;;;;;;;5.57;4.60;;;;;;;;;;5135185;27;20287;-78
2023/07/07 13:13:35;;;;;;;8.60;4.43;;;;;;;;;;5135294;27;20212;-78
2023/07/07 13:16:03;;;;;;;5.00;4.40;;;;;;;;;;5134803;27;20208;-79
2023/07/07 13:18:30;;;;;;;5.25;4.30;;;;;;;;;;5134927;27;20690;-79
2023/07/07 13:20:58;;;;;;;5.68;4.60;;;;;;;;;;5135216;27;20300;-78
2023/07/07 13:23:29;;;;;;;5.53;4.50;;;;;;;;;;5134849;27;20193;-78
2023/07/07 13:25:57;;;;;;;5.22;4.05;;;;;;;;;;5134745;27;20724;-79
2023/07/07 13:28:26;;;;;;;6.22;4.43;;;;;;;;;;5134386;27;20280;-78
2023/07/07 13:30:54;;;;;;;6.72;4.22;;;;;;;;;;5134383;27;20189;-78
2023/07/07 13:33:22;;;;;;;6.10;4.40;;;;;;;;;;5134875;27;20217;-79
2023/07/07 13:35:51;;;;;;;5.78;4.45;;;;;;;;;;5134865;27;20197;-78
2023/07/07 13:38:20;;;;;;;5.55;4.85;;;;;;;;;;5134773;27;20231;-78
2023/07/07 13:40:48;;;;;;;7.05;4.25;;;;;;;;;;5135216;27;20284;-79
2023/07/07 13:43:21;;;;;;;6.43;4.43;;;;;;;;;;5134712;27;20694;-78
2023/07/07 13:45:48;;;;;;;6.68;4.18;;;;;;;;;;5134678;27;20221;-79
2023/07/07 13:48:19;;;;;;;7.22;4.28;;;;;;;;;;5134423;27;20200;-79
2023/07/07 13:50:46;;;;;;;6.05;4.47;;;;;;;;;;5134173;27;20324;-79
2023/07/07 13:53:13;;;;;;;6.47;4.55;;;;;;;;;;5134541;27;20193;-79
2023/07/07 13:55:42;;;;;;;5.10;4.05;;;;;;;;;;5134441;27;20200;-79
2023/07/07 13:58:14;;;;;;;5.03;4.60;;;;;;;;;;5134525;27;20229;-79
2023/07/07 14:00:44;;;;;;;6.10;4.60;;;;;;;;;;5133904;27;20201;-79
2023/07/07 14:03:16;;;;;;;6.35;4.53;;;;;;;;;;5134842;27;20275;-77
2023/07/07 14:05:43;;;;;;;7.25;4.43;;;;;;;;;;5132619;27;20231;-79
2023/07/07 14:08:15;;;;;;;5.22;4.30;;;;;;;;;;5133823;27;20289;-78
2023/07/07 14:10:44;;;;;;;6.53;4.70;;;;;;;;;;5134370;27;20283;-78
2023/07/07 14:13:15;;;;;;;5.28;4.68;;;;;;;;;;5134153;27;20632;-77
2023/07/07 14:15:48;;;;;;;6.78;4.43;;;;;;;;;;5133468;27;20304;-79
2023/07/07 14:18:17;;;;;;;7.55;4.40;;;;;;;;;;5134567;27;20231;-78
2023/07/07 14:20:47;;;;;;;6.35;4.82;;;;;;;;;;5134122;27;20293;-79
2023/07/07 14:23:16;;;;;;;6.50;4.65;;;;;;;;;;5134222;27;20299;-78
2023/07/07 14:25:46;;;;;;;6.28;4.43;;;;;;;;;;5133889;27;20478;-79
2023/07/07 14:28:16;;;;;;;6.75;4.80;;;;;;;;;;5134112;27;20193;-78
2023/07/07 14:30:52;;;;;;;5.22;4.40;;;;;;;;;;5133310;27;20288;-78
2023/07/07 14:33:23;;;;;;;7.28;5.28;;;;;;;;;;5133662;27;20280;-78
2023/07/07 14:35:50;;;;;;;5.03;4.53;;;;;;;;;;5133546;27;20613;-78
2023/07/07 14:38:24;;;;;;;6.75;4.72;;;;;;;;;;5133512;27;20227;-78
2023/07/07 14:40:54;;;;;;;6.13;4.90;;;;;;;;;;5133867;27;20288;-78
2023/07/07 14:43:22;;;;;;;6.50;5.30;;;;;;;;;;5133270;27;20197;-78
2023/07/07 14:45:53;;;;;;;7.85;4.60;;;;;;;;;;5134111;27;20225;-78
2023/07/07 14:48:21;;;;;;;7.07;5.00;;;;;;;;;;5133337;27;20287;-78
2023/07/07 14:50:48;;;;;;;9.98;5.28;;;;;;;;;;5133175;27;20330;-79
2023/07/07 14:53:18;;;;;;;7.32;5.07;;;;;;;;;;5134219;27;20292;-78
2023/07/07 14:55:48;;;;;;;6.10;4.78;;;;;;;;;;5133397;27;20218;-79